Time,TemperatureF,DewpointF,PressureIn,WindDirection,WindDirectionDegrees,WindSpeedMPH,WindSpeedGustMPH,Humidity,HourlyPrecipIn,Conditions,Clouds,dailyrainin,SoftwareType,DateUTC
2015-03-03 00:00:00,18.0,14.5,30.40,SSE,152,1.0,6.0,86,0.00,,,0.01,Wunderground v.1.15,2015-03-03 05:00:00,
2015-03-03 00:05:00,18.4,14.6,30.40,SSE,152,2.0,6.0,85,0.00,,,0.00,Wunderground v.1.15,2015-03-03 05:05:00,
2015-03-03 00:15:00,18.9,14.9,30.40,SSE,152,2.0,6.0,84,0.00,,,0.00,Wunderground v.1.15,2015-03-03 05:15:00,
2015-03-03 00:20:00,19.3,15.0,30.40,SSE,151,2.0,6.0,83,0.00,,,0.00,Wunderground v.1.15,2015-03-03 05:20:00,
2015-03-03 00:30:00,19.9,15.6,30.39,SE,144,4.0,4.0,83,0.00,,,0.00,Wunderground v.1.15,2015-03-03 05:30:00,
2015-03-03 00:40:00,20.2,15.9,30.39,SE,143,4.0,4.0,83,0.00,,,0.00,Wunderground v.1.15,2015-03-03 05:40:00,
2015-03-03 00:45:00,20.3,16.0,30.39,SE,143,3.0,6.0,83,0.00,,,0.00,Wunderground v.1.15,2015-03-03 05:45:00,
2015-03-03 00:55:00,20.4,16.1,30.38,SE,143,3.0,6.0,83,0.00,,,0.00,Wunderground v.1.15,2015-03-03 05:55:00,
2015-03-03 01:00:00,20.5,16.2,30.37,SE,143,3.0,6.0,83,0.00,,,0.00,Wunderground v.1.15,2015-03-03 06:00:00,
2015-03-03 01:05:00,20.6,16.3,30.37,SE,143,3.0,6.0,83,0.00,,,0.00,Wunderground v.1.15,2015-03-03 06:05:00,
2015-03-03 01:10:00,20.6,16.3,30.37,SE,143,3.0,3.0,83,0.00,,,0.00,Wunderground v.1.15,2015-03-03 06:10:00,
2015-03-03 01:20:00,20.7,16.6,30.37,SE,143,0.0,6.0,84,0.00,,,0.00,Wunderground v.1.15,2015-03-03 06:20:00,
2015-03-03 01:30:00,20.7,16.6,30.38,SE,143,0.0,6.0,84,0.00,,,0.00,Wunderground v.1.15,2015-03-03 06:30:00,
2015-03-03 01:40:00,20.8,16.7,30.38,SE,143,0.0,6.0,84,0.00,,,0.00,Wunderground v.1.15,2015-03-03 06:40:00,
2015-03-03 01:50:00,20.8,16.7,30.37,SE,143,0.0,6.0,84,0.00,,,0.00,Wunderground v.1.15,2015-03-03 06:50:00,
2015-03-03 01:55:00,20.9,16.8,30.37,SE,143,0.0,6.0,84,0.00,,,0.00,Wunderground v.1.15,2015-03-03 06:55:00,
2015-03-03 02:00:00,20.9,16.8,30.37,SE,143,0.0,6.0,84,0.00,,,0.00,Wunderground v.1.15,2015-03-03 07:00:00,
2015-03-03 02:05:00,21.0,16.9,30.37,SE,143,0.0,6.0,84,0.00,,,0.00,Wunderground v.1.15,2015-03-03 07:05:00,
2015-03-03 02:10:00,21.1,17.0,30.36,SE,143,0.0,6.0,84,0.00,,,0.00,Wunderground v.1.15,2015-03-03 07:10:00,
2015-03-03 02:20:00,21.2,17.1,30.35,SE,143,0.0,6.0,84,0.00,,,0.00,Wunderground v.1.15,2015-03-03 07:20:00,
2015-03-03 02:25:00,21.2,16.8,30.35,SE,143,1.0,6.0,83,0.00,,,0.00,Wunderground v.1.15,2015-03-03 07:25:00,
2015-03-03 02:30:00,21.3,17.2,30.34,SE,143,1.0,6.0,84,0.00,,,0.00,Wunderground v.1.15,2015-03-03 07:30:00,
2015-03-03 02:40:00,21.4,17.0,30.34,SE,142,2.0,6.0,83,0.00,,,0.00,Wunderground v.1.15,2015-03-03 07:40:00,
2015-03-03 02:50:00,21.6,17.0,30.33,SE,142,2.0,6.0,82,0.00,,,0.00,Wunderground v.1.15,2015-03-03 07:50:00,
2015-03-03 02:55:00,21.7,17.1,30.33,SE,142,2.0,6.0,82,0.00,,,0.00,Wunderground v.1.15,2015-03-03 07:55:00,
2015-03-03 03:05:00,21.8,17.2,30.33,SE,142,1.0,6.0,82,0.00,,,0.00,Wunderground v.1.15,2015-03-03 08:05:00,
2015-03-03 03:10:00,21.9,17.2,30.32,SE,142,1.0,1.0,82,0.00,,,0.00,Wunderground v.1.15,2015-03-03 08:10:00,
2015-03-03 03:20:00,21.9,17.5,30.32,SE,142,0.0,6.0,83,0.00,,,0.00,Wunderground v.1.15,2015-03-03 08:20:00,
2015-03-03 03:25:00,21.9,17.5,30.32,SE,142,0.0,6.0,83,0.00,,,0.00,Wunderground v.1.15,2015-03-03 08:25:00,
2015-03-03 03:35:00,21.9,17.5,30.31,SE,142,1.0,6.0,83,0.00,,,0.00,Wunderground v.1.15,2015-03-03 08:35:00,
2015-03-03 03:45:00,21.8,17.2,30.31,SE,142,2.0,6.0,82,0.00,,,0.00,Wunderground v.1.15,2015-03-03 08:45:00,
2015-03-03 03:55:00,21.9,17.2,30.32,SE,142,0.0,6.0,82,0.00,,,0.00,Wunderground v.1.15,2015-03-03 08:55:00,
2015-03-03 04:00:00,21.9,17.2,30.33,SE,142,0.0,6.0,82,0.00,,,0.00,Wunderground v.1.15,2015-03-03 09:00:00,
2015-03-03 04:05:00,22.0,17.3,30.32,SE,142,0.0,6.0,82,0.00,,,0.00,Wunderground v.1.15,2015-03-03 09:05:00,
2015-03-03 04:15:00,21.9,17.5,30.31,SE,142,2.0,6.0,83,0.00,,,0.00,Wunderground v.1.15,2015-03-03 09:15:00,
2015-03-03 04:20:00,21.9,17.5,30.31,SE,142,2.0,2.0,83,0.00,,,0.00,Wunderground v.1.15,2015-03-03 09:20:00,
2015-03-03 04:25:00,21.9,17.2,30.30,SE,142,1.0,6.0,82,0.00,,,0.00,Wunderground v.1.15,2015-03-03 09:25:00,
2015-03-03 04:35:00,22.0,17.3,30.30,SE,136,2.0,6.0,82,0.00,,,0.00,Wunderground v.1.15,2015-03-03 09:35:00,
2015-03-03 04:40:00,22.1,17.2,30.29,ESE,108,3.0,6.0,81,0.00,,,0.00,Wunderground v.1.15,2015-03-03 09:40:00,
2015-03-03 04:45:00,22.2,17.3,30.28,East,89,3.0,6.0,81,0.00,,,0.00,Wunderground v.1.15,2015-03-03 09:45:00,
2015-03-03 04:55:00,22.3,16.8,30.27,ENE,65,4.0,6.0,79,0.00,,,0.00,Wunderground v.1.15,2015-03-03 09:55:00,
2015-03-03 05:05:00,22.4,16.9,30.25,ENE,60,4.0,6.0,79,0.00,,,0.00,Wunderground v.1.15,2015-03-03 10:05:00,
2015-03-03 05:10:00,22.5,17.0,30.24,ENE,65,4.0,6.0,79,0.00,,,0.00,Wunderground v.1.15,2015-03-03 10:10:00,
2015-03-03 05:15:00,22.6,16.8,30.24,ENE,74,4.0,6.0,78,0.00,,,0.00,Wunderground v.1.15,2015-03-03 10:15:00,
2015-03-03 05:20:00,22.7,16.9,30.25,ENE,69,4.0,4.0,78,0.00,,,0.00,Wunderground v.1.15,2015-03-03 10:20:00,
2015-03-03 05:30:00,22.9,17.1,30.24,ENE,57,4.0,6.0,78,0.00,,,0.00,Wunderground v.1.15,2015-03-03 10:30:00,
2015-03-03 05:35:00,22.9,17.1,30.25,NE,48,4.0,6.0,78,0.00,,,0.00,Wunderground v.1.15,2015-03-03 10:35:00,
2015-03-03 05:45:00,23.0,17.2,30.25,ENE,76,3.0,6.0,78,0.00,,,0.00,Wunderground v.1.15,2015-03-03 10:45:00,
2015-03-03 05:50:00,23.0,17.2,30.25,ENE,75,2.0,6.0,78,0.00,,,0.00,Wunderground v.1.15,2015-03-03 10:50:00,
2015-03-03 06:00:00,23.0,17.2,30.24,ENE,64,4.0,4.0,78,0.00,,,0.00,Wunderground v.1.15,2015-03-03 11:00:00,
2015-03-03 06:05:00,23.0,17.2,30.23,ENE,66,4.0,6.0,78,0.00,,,0.00,Wunderground v.1.15,2015-03-03 11:05:00,
2015-03-03 06:15:00,23.1,17.3,30.23,ENE,72,3.0,6.0,78,0.00,,,0.00,Wunderground v.1.15,2015-03-03 11:15:00,
2015-03-03 06:20:00,23.1,17.3,30.22,NE,53,4.0,6.0,78,0.00,,,0.00,Wunderground v.1.15,2015-03-03 11:20:00,
2015-03-03 06:25:00,23.2,17.7,30.21,NE,48,3.0,6.0,79,0.00,,,0.00,Wunderground v.1.15,2015-03-03 11:25:00,
2015-03-03 06:30:00,23.3,17.5,30.20,ENE,65,3.0,6.0,78,0.00,,,0.00,Wunderground v.1.15,2015-03-03 11:30:00,
2015-03-03 06:40:00,23.6,17.4,30.18,NE,51,5.0,5.0,77,0.00,,,0.00,Wunderground v.1.15,2015-03-03 11:40:00,
2015-03-03 06:45:00,23.6,17.4,30.18,ENE,63,6.0,6.0,77,0.00,,,0.00,Wunderground v.1.15,2015-03-03 11:45:00,
2015-03-03 06:50:00,23.7,17.5,30.17,ENE,67,5.0,7.0,77,0.00,,,0.00,Wunderground v.1.15,2015-03-03 11:50:00,
2015-03-03 07:00:00,24.0,17.5,30.16,ENE,69,6.0,8.0,76,0.00,,,0.00,Wunderground v.1.15,2015-03-03 12:00:00,
2015-03-03 07:10:00,24.2,17.4,30.16,ENE,67,5.0,6.0,75,0.00,,,0.00,Wunderground v.1.15,2015-03-03 12:10:00,
2015-03-03 07:15:00,24.4,17.6,30.16,ENE,74,5.0,6.0,75,0.00,,,0.00,Wunderground v.1.15,2015-03-03 12:15:00,
2015-03-03 07:20:00,24.5,17.7,30.16,ENE,69,5.0,6.0,75,0.00,,,0.00,Wunderground v.1.15,2015-03-03 12:20:00,
2015-03-03 07:30:00,24.8,18.3,30.20,ESE,123,5.0,6.0,76,0.00,,,0.00,Wunderground v.1.15,2015-03-03 12:30:00,
2015-03-03 07:35:00,24.9,18.4,30.20,ESE,123,5.0,6.0,76,0.00,,,0.00,Wunderground v.1.15,2015-03-03 12:35:00,
2015-03-03 07:40:00,25.0,18.5,30.20,ESE,119,5.0,5.0,76,0.00,,,0.00,Wunderground v.1.15,2015-03-03 12:40:00,
2015-03-03 07:50:00,25.2,18.4,30.17,ENE,77,3.0,6.0,75,0.00,,,0.00,Wunderground v.1.15,2015-03-03 12:50:00,
2015-03-03 07:55:00,25.3,18.2,30.17,ENE,72,3.0,6.0,74,0.00,,,0.00,Wunderground v.1.15,2015-03-03 12:55:00,
2015-03-03 08:05:00,25.3,18.5,30.13,NE,56,4.0,6.0,75,0.00,,,0.00,Wunderground v.1.15,2015-03-03 13:05:00,
2015-03-03 08:15:00,25.4,19.5,30.18,ESE,122,3.0,6.0,78,0.00,,,0.00,Wunderground v.1.15,2015-03-03 13:15:00,
2015-03-03 08:20:00,25.4,19.5,30.19,SE,130,3.0,6.0,78,0.00,,,0.00,Wunderground v.1.15,2015-03-03 13:20:00,
2015-03-03 08:30:00,25.5,19.6,30.17,ENE,76,3.0,3.0,78,0.00,,,0.00,Wunderground v.1.15,2015-03-03 13:30:00,
2015-03-03 08:35:00,25.7,19.8,30.16,ENE,77,2.0,6.0,78,0.00,,,0.00,Wunderground v.1.15,2015-03-03 13:35:00,
2015-03-03 08:40:00,25.8,19.9,30.14,ENE,58,2.0,2.0,78,0.00,,,0.00,Wunderground v.1.15,2015-03-03 13:40:00,
2015-03-03 08:50:00,26.1,20.2,30.13,ENE,61,2.0,2.0,78,0.00,,,0.00,Wunderground v.1.15,2015-03-03 13:50:00,
2015-03-03 08:55:00,26.3,20.4,30.13,ENE,57,3.0,3.0,78,0.00,,,0.00,Wunderground v.1.15,2015-03-03 13:55:00,
2015-03-03 09:00:00,26.5,20.6,30.13,ENE,78,3.0,3.0,78,0.00,,,0.00,Wunderground v.1.15,2015-03-03 14:00:00,
2015-03-03 09:10:00,26.9,21.6,30.12,East,84,3.0,6.0,80,0.00,,,0.00,Wunderground v.1.15,2015-03-03 14:10:00,
2015-03-03 09:20:00,27.2,21.8,30.14,ENE,77,3.0,6.0,80,0.00,,,0.00,Wunderground v.1.15,2015-03-03 14:20:00,
2015-03-03 09:25:00,27.3,21.6,30.14,East,96,4.0,6.0,79,0.00,,,0.00,Wunderground v.1.15,2015-03-03 14:25:00,
2015-03-03 09:35:00,27.4,21.7,30.11,ENE,68,3.0,6.0,79,0.00,,,0.00,Wunderground v.1.15,2015-03-03 14:35:00,
2015-03-03 09:40:00,27.4,21.7,30.11,ENE,75,4.0,4.0,79,0.00,,,0.00,Wunderground v.1.15,2015-03-03 14:40:00,
2015-03-03 09:45:00,27.4,21.7,30.11,East,82,4.0,6.0,79,0.00,,,0.00,Wunderground v.1.15,2015-03-03 14:45:00,
2015-03-03 09:55:00,27.7,22.0,30.09,ENE,74,4.0,6.0,79,0.00,,,0.00,Wunderground v.1.15,2015-03-03 14:55:00,
2015-03-03 10:05:00,27.9,22.5,30.08,ENE,75,4.0,6.0,80,0.00,,,0.00,Wunderground v.1.15,2015-03-03 15:05:00,
2015-03-03 10:10:00,28.1,22.4,30.07,ENE,75,5.0,6.0,79,0.00,,,0.00,Wunderground v.1.15,2015-03-03 15:10:00,
2015-03-03 10:15:00,28.2,22.8,30.06,East,82,5.0,6.0,80,0.00,,,0.00,Wunderground v.1.15,2015-03-03 15:15:00,
2015-03-03 10:25:00,28.4,22.7,30.03,East,85,6.0,7.0,79,0.00,,,0.00,Wunderground v.1.15,2015-03-03 15:25:00,
2015-03-03 10:30:00,28.3,22.6,30.02,East,86,6.0,6.0,79,0.00,,,0.00,Wunderground v.1.15,2015-03-03 15:30:00,
2015-03-03 10:40:00,28.3,22.9,30.01,East,79,7.0,7.0,80,0.00,,,0.00,Wunderground v.1.15,2015-03-03 15:40:00,
2015-03-03 10:45:00,28.3,22.9,29.99,ENE,68,7.0,7.0,80,0.00,,,0.00,Wunderground v.1.15,2015-03-03 15:45:00,
2015-03-03 10:55:00,28.6,23.2,29.98,East,81,7.0,7.0,80,0.00,,,0.00,Wunderground v.1.15,2015-03-03 15:55:00,
2015-03-03 11:00:00,28.8,23.7,29.97,East,82,6.0,10.0,81,0.00,,,0.00,Wunderground v.1.15,2015-03-03 16:00:00,
2015-03-03 11:05:00,28.9,23.8,29.97,East,82,7.0,10.0,81,0.00,,,0.00,Wunderground v.1.15,2015-03-03 16:05:00,
2015-03-03 11:15:00,29.2,24.4,29.95,ENE,61,7.0,7.0,82,0.00,,,0.00,Wunderground v.1.15,2015-03-03 16:15:00,
2015-03-03 11:25:00,29.5,24.4,29.94,East,86,5.0,6.0,81,0.00,,,0.00,Wunderground v.1.15,2015-03-03 16:25:00,
2015-03-03 11:30:00,29.6,24.5,29.93,East,86,6.0,6.0,81,0.00,,,0.00,Wunderground v.1.15,2015-03-03 16:30:00,
2015-03-03 11:40:00,29.9,24.8,29.92,East,88,5.0,5.0,81,0.00,,,0.00,Wunderground v.1.15,2015-03-03 16:40:00,
2015-03-03 11:50:00,30.1,24.7,29.93,East,83,5.0,5.0,80,0.00,,,0.00,Wunderground v.1.15,2015-03-03 16:50:00,
2015-03-03 11:55:00,30.4,25.0,29.92,East,88,5.0,6.0,80,0.00,,,0.00,Wunderground v.1.15,2015-03-03 16:55:00,
2015-03-03 12:05:00,30.8,25.7,29.89,East,86,6.0,7.0,81,0.00,,,0.00,Wunderground v.1.15,2015-03-03 17:05:00,
2015-03-03 12:10:00,31.0,26.1,29.89,East,83,7.0,9.0,82,0.00,,,0.00,Wunderground v.1.15,2015-03-03 17:10:00,